sensor_id;sensor_type;location;lat;lon;timestamp;P1;durP1;ratioP1;P2;durP2;ratioP2
37945;SDS011;23769;52.478;13.448;2024-01-15T00:01:54;14.65;;;7.65;;
37945;SDS011;23769;52.478;13.448;2024-01-15T00:04:21;14.10;;;8.88;;
37945;SDS011;23769;52.478;13.448;2024-01-15T00:06:48;13.30;;;8.10;;
37945;SDS011;23769;52.478;13.448;2024-01-15T00:09:17;15.70;;;9.35;;
37945;SDS011;23769;52.478;13.448;2024-01-15T00:11:44;14.63;;;8.55;;
37945;SDS011;23769;52.478;13.448;2024-01-15T00:14:12;13.27;;;8.07;;
37945;SDS011;23769;52.478;13.448;2024-01-15T00:16:40;13.57;;;7.75;;
37945;SDS011;23769;52.478;13.448;2024-01-15T00:19:07;12.95;;;8.18;;
37945;SDS011;23769;52.478;13.448;2024-01-15T00:21:34;14.25;;;8.57;;
37945;SDS011;23769;52.478;13.448;2024-01-15T00:24:01;12.85;;;7.30;;
37945;SDS011;23769;52.478;13.448;2024-01-15T00:26:30;13.70;;;8.05;;
37945;SDS011;23769;52.478;13.448;2024-01-15T00:28:57;14.10;;;7.50;;
37945;SDS011;23769;52.478;13.448;2024-01-15T00:31:24;15.45;;;8.65;;
37945;SDS011;23769;52.478;13.448;2024-01-15T00:33:52;14.88;;;8.05;;
37945;SDS011;23769;52.478;13.448;2024-01-15T00:36:19;13.45;;;8.35;;
37945;SDS011;23769;52.478;13.448;2024-01-15T00:38:46;15.27;;;7.80;;
37945;SDS011;23769;52.478;13.448;2024-01-15T00:41:13;15.48;;;8.05;;
37945;SDS011;23769;52.478;13.448;2024-01-15T00:43:42;14.18;;;7.95;;
37945;SDS011;23769;52.478;13.448;2024-01-15T00:46:09;13.48;;;8.35;;
37945;SDS011;23769;52.478;13.448;2024-01-15T00:48:36;13.70;;;8.20;;
37945;SDS011;23769;52.478;13.448;2024-01-15T00:51:04;12.80;;;7.38;;
37945;SDS011;23769;52.478;13.448;2024-01-15T00:53:31;16.25;;;8.55;;
37945;SDS011;23769;52.478;13.448;2024-01-15T00:55:58;14.50;;;8.30;;
37945;SDS011;23769;52.478;13.448;2024-01-15T00:58:25;16.60;;;8.55;;
37945;SDS011;23769;52.478;13.448;2024-01-15T01:00:54;15.38;;;7.78;;
37945;SDS011;23769;52.478;13.448;2024-01-15T01:03:21;14.25;;;7.78;;
37945;SDS011;23769;52.478;13.448;2024-01-15T01:05:49;13.93;;;7.65;;
37945;SDS011;23769;52.478;13.448;2024-01-15T01:08:16;14.45;;;7.68;;
37945;SDS011;23769;52.478;13.448;2024-01-15T01:10:43;14.73;;;8.52;;
37945;SDS011;23769;52.478;13.448;2024-01-15T01:13:10;15.45;;;8.15;;
37945;SDS011;23769;52.478;13.448;2024-01-15T01:15:37;14.23;;;7.70;;
37945;SDS011;23769;52.478;13.448;2024-01-15T01:18:06;15.13;;;8.10;;
37945;SDS011;23769;52.478;13.448;2024-01-15T01:20:33;15.73;;;8.10;;
37945;SDS011;23769;52.478;13.448;2024-01-15T01:23:00;14.52;;;8.23;;
37945;SDS011;23769;52.478;13.448;2024-01-15T01:25:28;16.15;;;8.65;;
37945;SDS011;23769;52.478;13.448;2024-01-15T01:27:55;15.45;;;8.25;;
37945;SDS011;23769;52.478;13.448;2024-01-15T01:30:22;13.90;;;7.88;;
37945;SDS011;23769;52.478;13.448;2024-01-15T01:32:50;14.95;;;8.10;;
37945;SDS011;23769;52.478;13.448;2024-01-15T01:35:18;16.02;;;7.78;;
37945;SDS011;23769;52.478;13.448;2024-01-15T01:37:45;15.63;;;9.00;;
37945;SDS011;23769;52.478;13.448;2024-01-15T01:40:13;19.42;;;8.90;;
37945;SDS011;23769;52.478;13.448;2024-01-15T01:42:40;16.80;;;9.05;;
37945;SDS011;23769;52.478;13.448;2024-01-15T01:45:08;15.23;;;8.50;;
37945;SDS011;23769;52.478;13.448;2024-01-15T01:47:35;14.50;;;8.27;;
37945;SDS011;23769;52.478;13.448;2024-01-15T01:50:02;16.65;;;9.30;;
37945;SDS011;23769;52.478;13.448;2024-01-15T01:52:31;13.27;;;8.43;;
37945;SDS011;23769;52.478;13.448;2024-01-15T01:54:58;15.98;;;8.85;;
37945;SDS011;23769;52.478;13.448;2024-01-15T01:57:27;18.75;;;9.75;;
37945;SDS011;23769;52.478;13.448;2024-01-15T01:59:55;17.42;;;9.85;;
37945;SDS011;23769;52.478;13.448;2024-01-15T02:02:22;21.92;;;10.57;;
37945;SDS011;23769;52.478;13.448;2024-01-15T02:04:49;16.90;;;9.52;;
37945;SDS011;23769;52.478;13.448;2024-01-15T02:07:17;17.77;;;10.07;;
37945;SDS011;23769;52.478;13.448;2024-01-15T02:09:45;15.50;;;8.93;;
37945;SDS011;23769;52.478;13.448;2024-01-15T02:12:12;16.00;;;8.23;;
37945;SDS011;23769;52.478;13.448;2024-01-15T02:14:40;19.63;;;8.75;;
37945;SDS011;23769;52.478;13.448;2024-01-15T02:17:07;16.92;;;9.15;;
37945;SDS011;23769;52.478;13.448;2024-01-15T02:19:34;14.98;;;8.63;;
37945;SDS011;23769;52.478;13.448;2024-01-15T02:22:01;16.70;;;8.65;;
37945;SDS011;23769;52.478;13.448;2024-01-15T02:24:30;17.77;;;9.75;;
37945;SDS011;23769;52.478;13.448;2024-01-15T02:26:57;13.75;;;8.18;;
37945;SDS011;23769;52.478;13.448;2024-01-15T02:29:25;17.38;;;8.25;;
37945;SDS011;23769;52.478;13.448;2024-01-15T02:31:52;18.05;;;9.23;;
37945;SDS011;23769;52.478;13.448;2024-01-15T02:34:19;14.25;;;7.82;;
37945;SDS011;23769;52.478;13.448;2024-01-15T02:36:46;13.73;;;7.32;;
37945;SDS011;23769;52.478;13.448;2024-01-15T02:39:13;14.18;;;7.05;;
37945;SDS011;23769;52.478;13.448;2024-01-15T02:41:42;13.90;;;7.10;;
37945;SDS011;23769;52.478;13.448;2024-01-15T02:44:09;14.40;;;7.47;;
37945;SDS011;23769;52.478;13.448;2024-01-15T02:46:36;11.60;;;6.97;;
37945;SDS011;23769;52.478;13.448;2024-01-15T02:49:03;14.55;;;7.13;;
37945;SDS011;23769;52.478;13.448;2024-01-15T02:51:31;13.43;;;6.68;;
37945;SDS011;23769;52.478;13.448;2024-01-15T02:53:58;13.68;;;6.10;;
37945;SDS011;23769;52.478;13.448;2024-01-15T02:56:25;12.68;;;6.35;;
37945;SDS011;23769;52.478;13.448;2024-01-15T02:58:54;14.50;;;6.95;;
37945;SDS011;23769;52.478;13.448;2024-01-15T03:01:21;12.27;;;6.80;;
37945;SDS011;23769;52.478;13.448;2024-01-15T03:03:48;12.68;;;6.82;;
37945;SDS011;23769;52.478;13.448;2024-01-15T03:06:15;12.73;;;7.55;;
37945;SDS011;23769;52.478;13.448;2024-01-15T03:08:43;13.65;;;6.55;;
37945;SDS011;23769;52.478;13.448;2024-01-15T03:11:10;13.40;;;7.15;;
37945;SDS011;23769;52.478;13.448;2024-01-15T03:13:37;13.93;;;6.85;;
37945;SDS011;23769;52.478;13.448;2024-01-15T03:16:06;12.73;;;7.22;;
37945;SDS011;23769;52.478;13.448;2024-01-15T03:18:33;13.60;;;6.88;;
37945;SDS011;23769;52.478;13.448;2024-01-15T03:21:00;15.68;;;7.25;;
37945;SDS011;23769;52.478;13.448;2024-01-15T03:23:27;12.38;;;6.05;;
37945;SDS011;23769;52.478;13.448;2024-01-15T03:25:55;14.77;;;7.88;;
37945;SDS011;23769;52.478;13.448;2024-01-15T03:28:22;12.68;;;7.10;;
37945;SDS011;23769;52.478;13.448;2024-01-15T03:30:49;10.70;;;6.30;;
37945;SDS011;23769;52.478;13.448;2024-01-15T03:33:18;16.25;;;6.40;;
37945;SDS011;23769;52.478;13.448;2024-01-15T03:35:45;12.40;;;5.90;;
37945;SDS011;23769;52.478;13.448;2024-01-15T03:38:12;12.82;;;5.90;;
37945;SDS011;23769;52.478;13.448;2024-01-15T03:40:39;14.95;;;5.50;;
37945;SDS011;23769;52.478;13.448;2024-01-15T03:43:06;11.75;;;6.30;;
37945;SDS011;23769;52.478;13.448;2024-01-15T03:45:34;13.38;;;5.70;;
37945;SDS011;23769;52.478;13.448;2024-01-15T03:48:01;12.48;;;5.63;;
37945;SDS011;23769;52.478;13.448;2024-01-15T03:50:30;15.75;;;6.07;;
37945;SDS011;23769;52.478;13.448;2024-01-15T03:52:57;14.30;;;6.13;;
37945;SDS011;23769;52.478;13.448;2024-01-15T03:55:24;14.43;;;5.88;;
37945;SDS011;23769;52.478;13.448;2024-01-15T03:57:51;11.50;;;4.80;;
37945;SDS011;23769;52.478;13.448;2024-01-15T04:00:19;10.43;;;5.10;;
37945;SDS011;23769;52.478;13.448;2024-01-15T04:02:46;13.15;;;5.28;;
37945;SDS011;23769;52.478;13.448;2024-01-15T04:05:13;12.50;;;4.75;;
37945;SDS011;23769;52.478;13.448;2024-01-15T04:07:42;14.05;;;6.25;;
37945;SDS011;23769;52.478;13.448;2024-01-15T04:10:09;10.70;;;4.78;;
37945;SDS011;23769;52.478;13.448;2024-01-15T04:12:36;7.88;;;4.60;;
37945;SDS011;23769;52.478;13.448;2024-01-15T04:15:04;11.88;;;4.85;;
37945;SDS011;23769;52.478;13.448;2024-01-15T04:17:31;11.93;;;4.60;;
37945;SDS011;23769;52.478;13.448;2024-01-15T04:19:58;9.90;;;4.25;;
37945;SDS011;23769;52.478;13.448;2024-01-15T04:22:26;8.25;;;4.38;;
37945;SDS011;23769;52.478;13.448;2024-01-15T04:24:55;11.10;;;4.90;;
37945;SDS011;23769;52.478;13.448;2024-01-15T04:27:22;12.20;;;5.13;;
37945;SDS011;23769;52.478;13.448;2024-01-15T04:29:51;9.68;;;4.20;;
37945;SDS011;23769;52.478;13.448;2024-01-15T04:32:18;8.55;;;4.53;;
37945;SDS011;23769;52.478;13.448;2024-01-15T04:34:45;8.02;;;3.65;;
37945;SDS011;23769;52.478;13.448;2024-01-15T04:37:13;9.30;;;4.38;;
37945;SDS011;23769;52.478;13.448;2024-01-15T04:39:40;9.93;;;4.32;;
37945;SDS011;23769;52.478;13.448;2024-01-15T04:42:09;11.05;;;3.42;;
37945;SDS011;23769;52.478;13.448;2024-01-15T04:44:36;8.95;;;3.50;;
37945;SDS011;23769;52.478;13.448;2024-01-15T04:47:03;9.30;;;3.92;;
37945;SDS011;23769;52.478;13.448;2024-01-15T04:49:31;8.15;;;4.00;;
37945;SDS011;23769;52.478;13.448;2024-01-15T04:51:58;10.90;;;3.90;;
37945;SDS011;23769;52.478;13.448;2024-01-15T04:54:25;9.25;;;3.30;;
37945;SDS011;23769;52.478;13.448;2024-01-15T04:56:52;10.55;;;3.85;;
37945;SDS011;23769;52.478;13.448;2024-01-15T04:59:21;7.90;;;3.83;;
37945;SDS011;23769;52.478;13.448;2024-01-15T05:01:48;10.57;;;3.42;;
37945;SDS011;23769;52.478;13.448;2024-01-15T05:04:15;9.25;;;2.95;;
37945;SDS011;23769;52.478;13.448;2024-01-15T05:06:42;9.43;;;2.80;;
37945;SDS011;23769;52.478;13.448;2024-01-15T05:09:10;7.50;;;2.67;;
37945;SDS011;23769;52.478;13.448;2024-01-15T05:11:38;9.88;;;2.70;;
37945;SDS011;23769;52.478;13.448;2024-01-15T05:14:05;7.72;;;3.25;;
37945;SDS011;23769;52.478;13.448;2024-01-15T05:16:34;7.68;;;2.70;;
37945;SDS011;23769;52.478;13.448;2024-01-15T05:19:01;8.75;;;2.58;;
37945;SDS011;23769;52.478;13.448;2024-01-15T05:21:28;8.35;;;2.70;;
37945;SDS011;23769;52.478;13.448;2024-01-15T05:23:55;7.45;;;2.35;;
37945;SDS011;23769;52.478;13.448;2024-01-15T05:26:23;9.18;;;2.75;;
37945;SDS011;23769;52.478;13.448;2024-01-15T05:28:50;7.15;;;2.63;;
37945;SDS011;23769;52.478;13.448;2024-01-15T05:31:17;8.52;;;2.38;;
37945;SDS011;23769;52.478;13.448;2024-01-15T05:33:46;7.05;;;2.42;;
37945;SDS011;23769;52.478;13.448;2024-01-15T05:36:13;5.80;;;2.63;;
37945;SDS011;23769;52.478;13.448;2024-01-15T05:38:40;9.25;;;2.97;;
37945;SDS011;23769;52.478;13.448;2024-01-15T05:41:07;9.60;;;2.40;;
37945;SDS011;23769;52.478;13.448;2024-01-15T05:43:34;8.93;;;2.50;;
37945;SDS011;23769;52.478;13.448;2024-01-15T05:46:02;10.70;;;3.03;;
37945;SDS011;23769;52.478;13.448;2024-01-15T05:48:29;14.18;;;2.60;;
37945;SDS011;23769;52.478;13.448;2024-01-15T05:50:58;6.32;;;2.08;;
37945;SDS011;23769;52.478;13.448;2024-01-15T05:53:25;8.50;;;2.63;;
37945;SDS011;23769;52.478;13.448;2024-01-15T05:55:52;7.43;;;2.35;;
37945;SDS011;23769;52.478;13.448;2024-01-15T05:58:21;6.18;;;2.25;;
37945;SDS011;23769;52.478;13.448;2024-01-15T06:00:48;14.40;;;2.60;;
37945;SDS011;23769;52.478;13.448;2024-01-15T06:03:16;8.77;;;2.67;;
37945;SDS011;23769;52.478;13.448;2024-01-15T06:05:43;9.10;;;2.65;;
37945;SDS011;23769;52.478;13.448;2024-01-15T06:08:11;12.35;;;2.85;;
37945;SDS011;23769;52.478;13.448;2024-01-15T06:10:39;12.40;;;2.83;;
37945;SDS011;23769;52.478;13.448;2024-01-15T06:13:06;7.72;;;2.65;;
37945;SDS011;23769;52.478;13.448;2024-01-15T06:15:34;10.20;;;2.53;;
37945;SDS011;23769;52.478;13.448;2024-01-15T06:18:01;8.18;;;2.40;;
37945;SDS011;23769;52.478;13.448;2024-01-15T06:20:28;10.02;;;2.83;;
37945;SDS011;23769;52.478;13.448;2024-01-15T06:22:56;8.77;;;3.15;;
37945;SDS011;23769;52.478;13.448;2024-01-15T06:25:24;11.15;;;2.85;;
37945;SDS011;23769;52.478;13.448;2024-01-15T06:27:52;9.00;;;2.30;;
37945;SDS011;23769;52.478;13.448;2024-01-15T06:30:19;9.80;;;2.50;;
37945;SDS011;23769;52.478;13.448;2024-01-15T06:32:46;11.68;;;2.75;;
37945;SDS011;23769;52.478;13.448;2024-01-15T06:35:14;13.82;;;2.40;;
37945;SDS011;23769;52.478;13.448;2024-01-15T06:37:41;8.45;;;2.42;;
37945;SDS011;23769;52.478;13.448;2024-01-15T06:40:08;7.43;;;2.35;;
37945;SDS011;23769;52.478;13.448;2024-01-15T06:42:37;7.80;;;1.80;;
37945;SDS011;23769;52.478;13.448;2024-01-15T06:45:05;9.77;;;3.00;;
37945;SDS011;23769;52.478;13.448;2024-01-15T06:47:32;12.07;;;2.30;;
37945;SDS011;23769;52.478;13.448;2024-01-15T06:49:59;10.70;;;2.38;;
37945;SDS011;23769;52.478;13.448;2024-01-15T06:52:27;9.60;;;2.28;;
37945;SDS011;23769;52.478;13.448;2024-01-15T06:54:54;8.43;;;1.80;;
37945;SDS011;23769;52.478;13.448;2024-01-15T06:57:21;13.13;;;2.63;;
37945;SDS011;23769;52.478;13.448;2024-01-15T06:59:50;10.70;;;2.92;;
37945;SDS011;23769;52.478;13.448;2024-01-15T07:02:17;10.38;;;2.05;;
37945;SDS011;23769;52.478;13.448;2024-01-15T07:04:45;9.10;;;1.88;;
37945;SDS011;23769;52.478;13.448;2024-01-15T07:07:12;13.43;;;2.15;;
37945;SDS011;23769;52.478;13.448;2024-01-15T07:09:39;9.07;;;1.58;;
37945;SDS011;23769;52.478;13.448;2024-01-15T07:12:07;8.13;;;1.60;;
37945;SDS011;23769;52.478;13.448;2024-01-15T07:14:34;11.48;;;2.15;;
37945;SDS011;23769;52.478;13.448;2024-01-15T07:17:03;8.07;;;1.70;;
37945;SDS011;23769;52.478;13.448;2024-01-15T07:19:31;11.23;;;1.85;;
37945;SDS011;23769;52.478;13.448;2024-01-15T07:21:58;11.70;;;2.58;;
37945;SDS011;23769;52.478;13.448;2024-01-15T07:24:26;8.93;;;1.65;;
37945;SDS011;23769;52.478;13.448;2024-01-15T07:26:53;7.60;;;1.17;;
37945;SDS011;23769;52.478;13.448;2024-01-15T07:29:20;10.73;;;2.15;;
37945;SDS011;23769;52.478;13.448;2024-01-15T07:31:48;8.07;;;1.70;;
37945;SDS011;23769;52.478;13.448;2024-01-15T07:34:17;10.32;;;2.42;;
37945;SDS011;23769;52.478;13.448;2024-01-15T07:36:44;8.20;;;1.90;;
37945;SDS011;23769;52.478;13.448;2024-01-15T07:39:12;9.23;;;1.98;;
37945;SDS011;23769;52.478;13.448;2024-01-15T07:41:40;13.07;;;2.25;;
37945;SDS011;23769;52.478;13.448;2024-01-15T07:44:07;11.70;;;2.30;;
37945;SDS011;23769;52.478;13.448;2024-01-15T07:46:34;10.77;;;2.13;;
37945;SDS011;23769;52.478;13.448;2024-01-15T07:49:01;7.70;;;1.90;;
37945;SDS011;23769;52.478;13.448;2024-01-15T07:51:31;9.15;;;1.80;;
37945;SDS011;23769;52.478;13.448;2024-01-15T07:53:59;11.88;;;1.15;;
37945;SDS011;23769;52.478;13.448;2024-01-15T07:56:26;13.38;;;2.00;;
37945;SDS011;23769;52.478;13.448;2024-01-15T07:58:53;11.45;;;1.77;;
37945;SDS011;23769;52.478;13.448;2024-01-15T08:01:21;4.00;;;1.48;;
37945;SDS011;23769;52.478;13.448;2024-01-15T08:03:48;10.13;;;1.80;;
37945;SDS011;23769;52.478;13.448;2024-01-15T08:06:15;11.48;;;1.95;;
37945;SDS011;23769;52.478;13.448;2024-01-15T08:08:44;7.82;;;1.75;;
37945;SDS011;23769;52.478;13.448;2024-01-15T08:11:11;10.82;;;1.92;;
37945;SDS011;23769;52.478;13.448;2024-01-15T08:13:38;8.70;;;2.75;;
37945;SDS011;23769;52.478;13.448;2024-01-15T08:16:06;12.07;;;2.08;;
37945;SDS011;23769;52.478;13.448;2024-01-15T08:18:33;13.23;;;2.00;;
37945;SDS011;23769;52.478;13.448;2024-01-15T08:21:00;7.20;;;1.63;;
37945;SDS011;23769;52.478;13.448;2024-01-15T08:23:28;9.85;;;3.05;;
37945;SDS011;23769;52.478;13.448;2024-01-15T08:25:57;11.25;;;2.15;;
37945;SDS011;23769;52.478;13.448;2024-01-15T08:28:24;11.52;;;2.10;;
37945;SDS011;23769;52.478;13.448;2024-01-15T08:30:52;6.65;;;1.88;;
37945;SDS011;23769;52.478;13.448;2024-01-15T08:33:19;9.00;;;2.00;;
37945;SDS011;23769;52.478;13.448;2024-01-15T08:35:46;9.18;;;1.75;;
37945;SDS011;23769;52.478;13.448;2024-01-15T08:38:13;7.32;;;1.88;;
37945;SDS011;23769;52.478;13.448;2024-01-15T08:40:41;7.57;;;1.80;;
37945;SDS011;23769;52.478;13.448;2024-01-15T08:43:09;7.13;;;1.45;;
37945;SDS011;23769;52.478;13.448;2024-01-15T08:45:36;9.45;;;2.17;;
37945;SDS011;23769;52.478;13.448;2024-01-15T08:48:04;9.15;;;1.88;;
37945;SDS011;23769;52.478;13.448;2024-01-15T08:50:31;8.77;;;2.17;;
37945;SDS011;23769;52.478;13.448;2024-01-15T08:52:58;5.40;;;1.65;;
37945;SDS011;23769;52.478;13.448;2024-01-15T08:55:26;6.05;;;2.00;;
37945;SDS011;23769;52.478;13.448;2024-01-15T08:57:53;6.13;;;1.77;;
37945;SDS011;23769;52.478;13.448;2024-01-15T09:00:22;4.60;;;1.80;;
37945;SDS011;23769;52.478;13.448;2024-01-15T09:02:49;9.13;;;2.08;;
37945;SDS011;23769;52.478;13.448;2024-01-15T09:05:16;6.97;;;1.85;;
37945;SDS011;23769;52.478;13.448;2024-01-15T09:07:43;9.63;;;1.60;;
37945;SDS011;23769;52.478;13.448;2024-01-15T09:10:12;7.68;;;1.75;;
37945;SDS011;23769;52.478;13.448;2024-01-15T09:12:39;7.15;;;1.60;;
37945;SDS011;23769;52.478;13.448;2024-01-15T09:15:07;8.05;;;1.80;;
37945;SDS011;23769;52.478;13.448;2024-01-15T09:17:35;5.60;;;1.58;;
37945;SDS011;23769;52.478;13.448;2024-01-15T09:20:03;8.50;;;2.17;;
37945;SDS011;23769;52.478;13.448;2024-01-15T09:22:30;7.20;;;1.40;;
37945;SDS011;23769;52.478;13.448;2024-01-15T09:24:58;11.45;;;1.70;;
37945;SDS011;23769;52.478;13.448;2024-01-15T09:27:25;10.00;;;1.98;;
37945;SDS011;23769;52.478;13.448;2024-01-15T09:29:53;5.60;;;1.40;;
37945;SDS011;23769;52.478;13.448;2024-01-15T09:32:20;8.88;;;2.00;;
37945;SDS011;23769;52.478;13.448;2024-01-15T09:34:49;6.97;;;1.60;;
37945;SDS011;23769;52.478;13.448;2024-01-15T09:37:16;9.95;;;2.22;;
37945;SDS011;23769;52.478;13.448;2024-01-15T09:39:43;13.85;;;2.28;;
37945;SDS011;23769;52.478;13.448;2024-01-15T09:42:11;8.07;;;1.75;;
37945;SDS011;23769;52.478;13.448;2024-01-15T09:44:38;10.75;;;1.73;;
37945;SDS011;23769;52.478;13.448;2024-01-15T09:47:06;9.95;;;2.10;;
37945;SDS011;23769;52.478;13.448;2024-01-15T09:49:33;7.55;;;1.83;;
37945;SDS011;23769;52.478;13.448;2024-01-15T09:52:02;7.10;;;1.67;;
37945;SDS011;23769;52.478;13.448;2024-01-15T09:54:30;10.80;;;1.83;;
37945;SDS011;23769;52.478;13.448;2024-01-15T09:56:58;7.40;;;1.85;;
37945;SDS011;23769;52.478;13.448;2024-01-15T09:59:28;9.23;;;2.00;;
37945;SDS011;23769;52.478;13.448;2024-01-15T10:01:57;6.78;;;2.03;;
37945;SDS011;23769;52.478;13.448;2024-01-15T10:04:25;7.90;;;2.00;;
37945;SDS011;23769;52.478;13.448;2024-01-15T10:06:53;5.72;;;1.48;;
37945;SDS011;23769;52.478;13.448;2024-01-15T10:09:23;5.72;;;1.50;;
37945;SDS011;23769;52.478;13.448;2024-01-15T10:11:51;8.00;;;2.00;;
37945;SDS011;23769;52.478;13.448;2024-01-15T10:14:18;7.28;;;1.80;;
37945;SDS011;23769;52.478;13.448;2024-01-15T10:16:46;6.07;;;1.75;;
37945;SDS011;23769;52.478;13.448;2024-01-15T10:19:13;8.63;;;1.90;;
37945;SDS011;23769;52.478;13.448;2024-01-15T10:21:41;6.20;;;1.73;;
37945;SDS011;23769;52.478;13.448;2024-01-15T10:24:08;7.85;;;2.28;;
37945;SDS011;23769;52.478;13.448;2024-01-15T10:26:37;5.60;;;1.98;;
37945;SDS011;23769;52.478;13.448;2024-01-15T10:29:04;5.65;;;1.70;;
37945;SDS011;23769;52.478;13.448;2024-01-15T10:31:31;6.93;;;1.80;;
37945;SDS011;23769;52.478;13.448;2024-01-15T10:34:09;10.50;;;1.85;;
37945;SDS011;23769;52.478;13.448;2024-01-15T10:36:39;3.85;;;1.58;;
37945;SDS011;23769;52.478;13.448;2024-01-15T10:39:06;5.05;;;1.55;;
37945;SDS011;23769;52.478;13.448;2024-01-15T10:41:34;5.88;;;1.63;;
37945;SDS011;23769;52.478;13.448;2024-01-15T10:44:03;3.65;;;1.42;;
37945;SDS011;23769;52.478;13.448;2024-01-15T10:46:30;8.40;;;1.65;;
37945;SDS011;23769;52.478;13.448;2024-01-15T10:48:58;4.68;;;1.85;;
37945;SDS011;23769;52.478;13.448;2024-01-15T10:51:25;8.10;;;1.95;;
37945;SDS011;23769;52.478;13.448;2024-01-15T10:53:53;5.80;;;1.70;;
37945;SDS011;23769;52.478;13.448;2024-01-15T10:56:20;5.65;;;1.42;;
37945;SDS011;23769;52.478;13.448;2024-01-15T10:58:50;5.93;;;1.50;;
37945;SDS011;23769;52.478;13.448;2024-01-15T11:01:19;4.35;;;1.67;;
37945;SDS011;23769;52.478;13.448;2024-01-15T11:03:46;4.72;;;1.60;;
37945;SDS011;23769;52.478;13.448;2024-01-15T11:06:17;6.55;;;1.98;;
37945;SDS011;23769;52.478;13.448;2024-01-15T11:08:44;4.43;;;1.20;;
37945;SDS011;23769;52.478;13.448;2024-01-15T11:11:12;7.90;;;1.30;;
37945;SDS011;23769;52.478;13.448;2024-01-15T11:13:39;3.75;;;1.27;;
37945;SDS011;23769;52.478;13.448;2024-01-15T11:16:09;4.35;;;1.33;;
37945;SDS011;23769;52.478;13.448;2024-01-15T11:18:39;4.47;;;2.10;;
37945;SDS011;23769;52.478;13.448;2024-01-15T11:21:22;3.50;;;1.20;;
37945;SDS011;23769;52.478;13.448;2024-01-15T11:23:52;5.35;;;1.75;;
37945;SDS011;23769;52.478;13.448;2024-01-15T11:26:34;3.78;;;1.25;;
37945;SDS011;23769;52.478;13.448;2024-01-15T11:29:02;5.75;;;1.83;;
37945;SDS011;23769;52.478;13.448;2024-01-15T11:34:13;4.90;;;1.30;;
37945;SDS011;23769;52.478;13.448;2024-01-15T11:39:39;6.30;;;1.52;;
37945;SDS011;23769;52.478;13.448;2024-01-15T11:42:07;3.50;;;1.42;;
37945;SDS011;23769;52.478;13.448;2024-01-15T11:44:35;4.50;;;1.60;;
37945;SDS011;23769;52.478;13.448;2024-01-15T11:47:02;2.95;;;1.50;;
37945;SDS011;23769;52.478;13.448;2024-01-15T11:49:34;3.45;;;1.50;;
37945;SDS011;23769;52.478;13.448;2024-01-15T11:52:05;9.30;;;2.00;;
37945;SDS011;23769;52.478;13.448;2024-01-15T11:54:32;6.20;;;1.80;;
37945;SDS011;23769;52.478;13.448;2024-01-15T11:57:02;7.40;;;2.00;;
37945;SDS011;23769;52.478;13.448;2024-01-15T11:59:31;4.15;;;1.63;;
37945;SDS011;23769;52.478;13.448;2024-01-15T12:01:58;8.05;;;1.70;;
37945;SDS011;23769;52.478;13.448;2024-01-15T12:04:26;1.90;;;1.20;;
37945;SDS011;23769;52.478;13.448;2024-01-15T12:06:54;4.03;;;1.52;;
37945;SDS011;23769;52.478;13.448;2024-01-15T12:09:21;4.90;;;2.08;;
37945;SDS011;23769;52.478;13.448;2024-01-15T12:11:51;3.30;;;1.67;;
37945;SDS011;23769;52.478;13.448;2024-01-15T12:14:21;3.13;;;1.37;;
37945;SDS011;23769;52.478;13.448;2024-01-15T12:16:49;2.30;;;1.27;;
37945;SDS011;23769;52.478;13.448;2024-01-15T12:19:16;2.67;;;1.63;;
37945;SDS011;23769;52.478;13.448;2024-01-15T12:21:44;5.95;;;1.85;;
37945;SDS011;23769;52.478;13.448;2024-01-15T12:24:13;2.67;;;1.23;;
37945;SDS011;23769;52.478;13.448;2024-01-15T12:26:40;4.22;;;2.10;;
37945;SDS011;23769;52.478;13.448;2024-01-15T12:29:07;5.25;;;1.42;;
37945;SDS011;23769;52.478;13.448;2024-01-15T12:31:35;5.97;;;1.75;;
37945;SDS011;23769;52.478;13.448;2024-01-15T12:34:02;4.53;;;1.90;;
37945;SDS011;23769;52.478;13.448;2024-01-15T12:36:30;3.28;;;1.40;;
37945;SDS011;23769;52.478;13.448;2024-01-15T12:38:58;3.20;;;1.70;;
37945;SDS011;23769;52.478;13.448;2024-01-15T12:41:27;4.80;;;1.80;;
37945;SDS011;23769;52.478;13.448;2024-01-15T12:43:54;3.75;;;1.48;;
37945;SDS011;23769;52.478;13.448;2024-01-15T12:46:21;3.70;;;1.70;;
37945;SDS011;23769;52.478;13.448;2024-01-15T12:48:50;4.72;;;1.52;;
37945;SDS011;23769;52.478;13.448;2024-01-15T12:51:17;2.83;;;1.17;;
37945;SDS011;23769;52.478;13.448;2024-01-15T12:53:44;4.53;;;1.85;;
37945;SDS011;23769;52.478;13.448;2024-01-15T12:56:11;3.38;;;1.60;;
37945;SDS011;23769;52.478;13.448;2024-01-15T12:58:40;5.72;;;2.28;;
37945;SDS011;23769;52.478;13.448;2024-01-15T13:01:07;5.68;;;1.83;;
37945;SDS011;23769;52.478;13.448;2024-01-15T13:03:35;3.00;;;1.50;;
37945;SDS011;23769;52.478;13.448;2024-01-15T13:06:02;2.33;;;1.70;;
37945;SDS011;23769;52.478;13.448;2024-01-15T13:08:29;3.50;;;1.50;;
37945;SDS011;23769;52.478;13.448;2024-01-15T13:10:57;3.05;;;1.70;;
37945;SDS011;23769;52.478;13.448;2024-01-15T13:13:24;2.75;;;1.33;;
37945;SDS011;23769;52.478;13.448;2024-01-15T13:15:53;2.10;;;1.15;;
37945;SDS011;23769;52.478;13.448;2024-01-15T13:18:21;2.25;;;1.20;;
37945;SDS011;23769;52.478;13.448;2024-01-15T13:20:48;2.80;;;1.45;;
37945;SDS011;23769;52.478;13.448;2024-01-15T13:23:15;3.28;;;1.50;;
37945;SDS011;23769;52.478;13.448;2024-01-15T13:25:42;4.53;;;1.83;;
37945;SDS011;23769;52.478;13.448;2024-01-15T13:28:10;6.95;;;2.55;;
37945;SDS011;23769;52.478;13.448;2024-01-15T13:30:38;8.27;;;2.75;;
37945;SDS011;23769;52.478;13.448;2024-01-15T13:33:06;1.85;;;1.00;;
37945;SDS011;23769;52.478;13.448;2024-01-15T13:35:33;3.30;;;1.75;;
37945;SDS011;23769;52.478;13.448;2024-01-15T13:38:01;6.07;;;1.80;;
37945;SDS011;23769;52.478;13.448;2024-01-15T13:40:29;3.65;;;1.55;;
37945;SDS011;23769;52.478;13.448;2024-01-15T13:42:56;1.13;;;1.00;;
37945;SDS011;23769;52.478;13.448;2024-01-15T13:45:23;5.97;;;1.52;;
37945;SDS011;23769;52.478;13.448;2024-01-15T13:47:50;3.67;;;1.50;;
37945;SDS011;23769;52.478;13.448;2024-01-15T13:50:19;5.07;;;1.48;;
37945;SDS011;23769;52.478;13.448;2024-01-15T13:52:46;4.05;;;1.60;;
37945;SDS011;23769;52.478;13.448;2024-01-15T13:55:13;5.63;;;1.65;;
37945;SDS011;23769;52.478;13.448;2024-01-15T13:57:41;6.25;;;1.85;;
37945;SDS011;23769;52.478;13.448;2024-01-15T14:00:09;2.90;;;1.27;;
37945;SDS011;23769;52.478;13.448;2024-01-15T14:02:36;5.30;;;2.17;;
37945;SDS011;23769;52.478;13.448;2024-01-15T14:05:03;6.72;;;2.03;;
37945;SDS011;23769;52.478;13.448;2024-01-15T14:07:32;6.78;;;2.25;;
37945;SDS011;23769;52.478;13.448;2024-01-15T14:10:00;9.38;;;2.25;;
37945;SDS011;23769;52.478;13.448;2024-01-15T14:12:27;5.97;;;1.48;;
37945;SDS011;23769;52.478;13.448;2024-01-15T14:14:54;7.88;;;1.75;;
37945;SDS011;23769;52.478;13.448;2024-01-15T14:17:21;8.50;;;1.60;;
37945;SDS011;23769;52.478;13.448;2024-01-15T14:19:48;4.30;;;1.58;;
37945;SDS011;23769;52.478;13.448;2024-01-15T14:22:16;4.13;;;1.40;;
37945;SDS011;23769;52.478;13.448;2024-01-15T14:24:44;4.13;;;1.50;;
37945;SDS011;23769;52.478;13.448;2024-01-15T14:27:11;4.63;;;1.23;;
37945;SDS011;23769;52.478;13.448;2024-01-15T14:29:38;7.57;;;1.38;;
37945;SDS011;23769;52.478;13.448;2024-01-15T14:32:06;4.90;;;1.30;;
37945;SDS011;23769;52.478;13.448;2024-01-15T14:34:33;5.38;;;1.77;;
37945;SDS011;23769;52.478;13.448;2024-01-15T14:37:02;5.78;;;2.10;;